Time;durP1;ratioP1;P1;durP2;ratioP2;P2;SDS_P1;SDS_P2;PMS_P1;PMS_P2;Temp;Humidity;BMP_temperature;BMP_pressure;BME280_temperature;BME280_humidity;BME280_pressure;Samples;Min_cycle;Max_cycle;Signal;HPM_P1;HPM_P2
2024/04/03 00:02:02;;;;;;;49.17;11.77;;;;;;;;;;5031456;28;20494;-70
2024/04/03 00:04:27;;;;;;;41.00;10.98;;;;;;;;;;5032316;28;20239;-70
2024/04/03 00:06:53;;;;;;;38.75;11.00;;;;;;;;;;5032396;28;20017;-68
2024/04/03 00:09:18;;;;;;;50.33;10.55;;;;;;;;;;5031910;28;20349;-64
2024/04/03 00:11:43;;;;;;;41.95;11.30;;;;;;;;;;5032048;28;20383;-69
2024/04/03 00:14:09;;;;;;;46.97;10.90;;;;;;;;;;5032313;28;20112;-69
2024/04/03 00:16:34;;;;;;;43.80;11.70;;;;;;;;;;5032022;28;20029;-69
2024/04/03 00:18:59;;;;;;;39.28;10.20;;;;;;;;;;5030750;28;20092;-69
2024/04/03 00:21:25;;;;;;;38.85;10.88;;;;;;;;;;5031489;28;20353;-69
2024/04/03 00:23:52;;;;;;;36.55;11.43;;;;;;;;;;5031832;28;20384;-68
2024/04/03 00:26:17;;;;;;;34.17;11.55;;;;;;;;;;5032617;28;20057;-69
2024/04/03 00:28:43;;;;;;;38.83;12.30;;;;;;;;;;5031975;28;20056;-68
2024/04/03 00:31:08;;;;;;;41.03;11.73;;;;;;;;;;5031324;28;20037;-68
2024/04/03 00:33:34;;;;;;;41.03;11.95;;;;;;;;;;5030999;28;20471;-67
2024/04/03 00:36:00;;;;;;;33.60;11.10;;;;;;;;;;5032222;28;20025;-67
2024/04/03 00:38:26;;;;;;;40.17;10.82;;;;;;;;;;5032174;28;20009;-68
2024/04/03 00:40:55;;;;;;;42.25;11.70;;;;;;;;;;5030334;28;20041;-68
2024/04/03 00:43:21;;;;;;;48.75;11.30;;;;;;;;;;5031729;28;20029;-69
2024/04/03 00:45:46;;;;;;;36.83;11.32;;;;;;;;;;5032476;28;20017;-68
2024/04/03 00:48:12;;;;;;;35.08;10.25;;;;;;;;;;5031692;28;20025;-68
2024/04/03 00:50:38;;;;;;;48.28;11.25;;;;;;;;;;5031466;28;20032;-70
2024/04/03 00:53:04;;;;;;;40.85;11.32;;;;;;;;;;5031009;28;20092;-71
2024/04/03 00:55:30;;;;;;;38.58;10.18;;;;;;;;;;5031920;28;20060;-71
2024/04/03 00:57:56;;;;;;;44.45;11.00;;;;;;;;;;5031359;28;20460;-71
2024/04/03 01:00:21;;;;;;;40.95;11.20;;;;;;;;;;5063320;28;20457;-64
2024/04/03 01:02:46;;;;;;;48.05;11.32;;;;;;;;;;5031700;28;20104;-69
2024/04/03 01:05:12;;;;;;;38.47;10.55;;;;;;;;;;5030852;28;20029;-71
2024/04/03 01:07:37;;;;;;;32.50;10.45;;;;;;;;;;5031697;28;20033;-70
2024/04/03 01:10:03;;;;;;;35.50;10.80;;;;;;;;;;5031861;28;20036;-69
2024/04/03 01:12:32;;;;;;;43.92;10.35;;;;;;;;;;5034911;28;20036;-69
2024/04/03 01:14:58;;;;;;;37.55;10.45;;;;;;;;;;5035235;28;20048;-70
2024/04/03 01:17:23;;;;;;;29.67;9.70;;;;;;;;;;5034803;28;20064;-69
2024/04/03 01:19:49;;;;;;;45.85;11.63;;;;;;;;;;5035006;28;20048;-71
2024/04/03 01:22:14;;;;;;;45.97;10.15;;;;;;;;;;5034616;28;20075;-70
2024/04/03 01:24:40;;;;;;;34.22;10.32;;;;;;;;;;5034403;28;20100;-70
2024/04/03 01:27:05;;;;;;;37.22;9.82;;;;;;;;;;5035205;28;20021;-70
2024/04/03 01:29:31;;;;;;;32.13;9.77;;;;;;;;;;5033828;28;20455;-69
2024/04/03 01:31:56;;;;;;;40.53;9.88;;;;;;;;;;5034534;28;20397;-69
2024/04/03 01:34:22;;;;;;;39.55;10.25;;;;;;;;;;5035203;28;20116;-70
2024/04/03 01:36:47;;;;;;;42.28;11.45;;;;;;;;;;5034610;28;20108;-71
2024/04/03 01:39:15;;;;;;;43.97;10.85;;;;;;;;;;5034308;28;20041;-69
2024/04/03 01:41:41;;;;;;;48.00;10.35;;;;;;;;;;5034273;28;20045;-64
2024/04/03 01:44:06;;;;;;;31.40;9.90;;;;;;;;;;5035051;28;20025;-64
2024/04/03 01:46:31;;;;;;;41.60;9.70;;;;;;;;;;5033760;28;20022;-63
2024/04/03 01:48:57;;;;;;;40.72;10.40;;;;;;;;;;5034354;28;20075;-62
2024/04/03 01:51:22;;;;;;;36.60;10.70;;;;;;;;;;5034881;28;20033;-64
2024/04/03 01:53:48;;;;;;;40.38;9.90;;;;;;;;;;5033427;28;20075;-64
2024/04/03 01:56:13;;;;;;;50.60;10.38;;;;;;;;;;5034090;28;20037;-64
2024/04/03 01:58:39;;;;;;;37.67;10.00;;;;;;;;;;5033012;28;20028;-63
2024/04/03 02:01:04;;;;;;;47.72;10.27;;;;;;;;;;5034489;28;20042;-65
2024/04/03 02:03:29;;;;;;;39.65;10.55;;;;;;;;;;5034482;28;20108;-66
2024/04/03 02:05:55;;;;;;;42.35;10.27;;;;;;;;;;5033001;28;20326;-66
2024/04/03 02:08:20;;;;;;;40.40;10.95;;;;;;;;;;5033964;28;20037;-65
2024/04/03 02:10:46;;;;;;;37.30;10.48;;;;;;;;;;5033661;28;20021;-64
2024/04/03 02:13:11;;;;;;;43.10;10.35;;;;;;;;;;5033759;28;20083;-64
2024/04/03 02:15:37;;;;;;;38.03;9.38;;;;;;;;;;5033669;28;20104;-64
2024/04/03 02:18:04;;;;;;;38.80;10.60;;;;;;;;;;5033707;28;20033;-64
2024/04/03 02:20:29;;;;;;;35.33;9.45;;;;;;;;;;5033477;28;20046;-64
2024/04/03 02:22:55;;;;;;;40.35;10.43;;;;;;;;;;5034419;28;20021;-64
2024/04/03 02:25:21;;;;;;;34.50;9.70;;;;;;;;;;5033492;28;20134;-63
2024/04/03 02:27:47;;;;;;;34.13;10.32;;;;;;;;;;5033269;28;20159;-64
2024/04/03 02:30:12;;;;;;;43.08;9.30;;;;;;;;;;5034017;28;20028;-64
2024/04/03 02:32:38;;;;;;;35.00;9.27;;;;;;;;;;5033774;28;20026;-64
2024/04/03 02:35:04;;;;;;;36.13;9.80;;;;;;;;;;5032847;28;20017;-64
2024/04/03 02:37:31;;;;;;;38.85;9.73;;;;;;;;;;5033102;28;20062;-65
2024/04/03 02:39:56;;;;;;;34.97;9.38;;;;;;;;;;5034037;28;20068;-64
2024/04/03 02:42:23;;;;;;;39.55;9.85;;;;;;;;;;5033867;28;20112;-63
2024/04/03 02:44:48;;;;;;;37.55;9.98;;;;;;;;;;5032975;28;20032;-64
2024/04/03 02:47:13;;;;;;;40.70;10.00;;;;;;;;;;5033166;28;20025;-64
2024/04/03 02:49:39;;;;;;;35.08;8.40;;;;;;;;;;5033591;28;20057;-63
2024/04/03 02:52:04;;;;;;;37.17;9.77;;;;;;;;;;5033215;28;20041;-63
2024/04/03 02:54:33;;;;;;;39.33;9.32;;;;;;;;;;5032671;28;20049;-64
2024/04/03 02:56:58;;;;;;;36.40;8.98;;;;;;;;;;5032833;28;20057;-65
2024/04/03 02:59:24;;;;;;;33.17;9.02;;;;;;;;;;5033132;28;20060;-65
2024/04/03 03:01:52;;;;;;;42.53;9.93;;;;;;;;;;5032674;28;20081;-64
2024/04/03 03:04:20;;;;;;;40.22;9.27;;;;;;;;;;5032438;28;20037;-64
2024/04/03 03:06:45;;;;;;;43.80;10.23;;;;;;;;;;5032519;28;20355;-65
2024/04/03 03:09:11;;;;;;;43.63;9.27;;;;;;;;;;5033147;28;20026;-64
2024/04/03 03:11:36;;;;;;;34.38;9.23;;;;;;;;;;5032439;28;20033;-64
2024/04/03 03:14:01;;;;;;;36.85;9.00;;;;;;;;;;5032295;28;20018;-63
2024/04/03 03:16:27;;;;;;;31.08;8.98;;;;;;;;;;5033211;28;20037;-63
2024/04/03 03:18:52;;;;;;;42.35;10.10;;;;;;;;;;5032474;28;20121;-65
2024/04/03 03:21:17;;;;;;;36.38;8.98;;;;;;;;;;5032350;28;20036;-65
2024/04/03 03:23:43;;;;;;;38.22;9.68;;;;;;;;;;5032735;28;20104;-65
2024/04/03 03:26:08;;;;;;;38.78;9.55;;;;;;;;;;5032186;28;20087;-65
2024/04/03 03:28:34;;;;;;;38.90;9.20;;;;;;;;;;5032043;28;20013;-63
2024/04/03 03:30:59;;;;;;;31.73;8.57;;;;;;;;;;5033127;28;20480;-65
2024/04/03 03:33:25;;;;;;;37.85;9.25;;;;;;;;;;5031730;28;20368;-69
2024/04/03 03:35:54;;;;;;;42.28;9.00;;;;;;;;;;5032381;28;20021;-65
2024/04/03 03:38:19;;;;;;;32.55;8.55;;;;;;;;;;5032790;28;20029;-64
2024/04/03 03:40:45;;;;;;;47.28;9.25;;;;;;;;;;5032490;28;20078;-64
2024/04/03 03:43:10;;;;;;;37.53;8.77;;;;;;;;;;5031664;28;20056;-65
2024/04/03 03:45:49;;;;;;;38.17;9.38;;;;;;;;;;5032289;28;20110;-65
2024/04/03 03:48:15;;;;;;;51.90;9.55;;;;;;;;;;5031907;28;20123;-66
2024/04/03 03:53:30;;;;;;;38.10;9.70;;;;;;;;;;5031975;28;20029;-66
2024/04/03 03:55:56;;;;;;;41.88;8.98;;;;;;;;;;5032581;28;20049;-66
2024/04/03 03:58:22;;;;;;;32.50;9.10;;;;;;;;;;5032485;28;20421;-65
2024/04/03 04:00:47;;;;;;;37.00;9.35;;;;;;;;;;5031690;28;20091;-65
2024/04/03 04:03:13;;;;;;;39.50;8.93;;;;;;;;;;5031746;28;20317;-66
2024/04/03 04:05:38;;;;;;;37.67;8.60;;;;;;;;;;5032340;28;20115;-66
2024/04/03 04:08:04;;;;;;;34.03;8.27;;;;;;;;;;5032404;28;20429;-65
2024/04/03 04:10:29;;;;;;;37.85;9.20;;;;;;;;;;5031954;28;20432;-64
2024/04/03 04:12:55;;;;;;;39.53;9.07;;;;;;;;;;5031417;28;20049;-64
2024/04/03 04:15:22;;;;;;;33.75;8.95;;;;;;;;;;5032464;28;20026;-64
2024/04/03 04:17:47;;;;;;;41.72;9.15;;;;;;;;;;5032162;28;20104;-65
2024/04/03 04:20:13;;;;;;;41.92;9.18;;;;;;;;;;5031569;28;20239;-65
2024/04/03 04:22:38;;;;;;;33.55;8.02;;;;;;;;;;5031597;28;20087;-66
2024/04/03 04:25:04;;;;;;;37.03;8.82;;;;;;;;;;5032115;28;20080;-63
2024/04/03 04:27:31;;;;;;;37.08;8.73;;;;;;;;;;5032354;28;20025;-64
2024/04/03 04:29:57;;;;;;;38.38;8.43;;;;;;;;;;5031803;28;20384;-65
2024/04/03 04:32:22;;;;;;;33.38;9.38;;;;;;;;;;5031308;28;20487;-65
2024/04/03 04:34:47;;;;;;;36.80;8.50;;;;;;;;;;5031561;28;20080;-65
2024/04/03 04:37:13;;;;;;;38.63;8.75;;;;;;;;;;5032176;28;20036;-65
2024/04/03 04:39:38;;;;;;;43.75;9.60;;;;;;;;;;5031483;28;20137;-67
2024/04/03 04:42:04;;;;;;;37.95;8.25;;;;;;;;;;5030804;28;20032;-65
2024/04/03 04:44:30;;;;;;;44.78;8.77;;;;;;;;;;5032723;28;20036;-65
2024/04/03 04:46:59;;;;;;;36.42;9.93;;;;;;;;;;5035803;28;20451;-65
2024/04/03 04:49:24;;;;;;;46.85;18.58;;;;;;;;;;5035340;28;20021;-65
2024/04/03 04:51:50;;;;;;;31.92;9.27;;;;;;;;;;5034250;28;20095;-65
2024/04/03 04:54:16;;;;;;;39.53;9.30;;;;;;;;;;5034690;28;20364;-65
2024/04/03 04:56:42;;;;;;;31.02;8.80;;;;;;;;;;5035273;28;20341;-64
2024/04/03 04:59:08;;;;;;;43.17;9.43;;;;;;;;;;5035346;28;20078;-64
2024/04/03 05:01:34;;;;;;;33.78;8.07;;;;;;;;;;5034834;28;20072;-64
2024/04/03 05:04:00;;;;;;;34.35;8.52;;;;;;;;;;5034966;28;20025;-63
2024/04/03 05:06:25;;;;;;;43.17;9.05;;;;;;;;;;5034877;28;20040;-64
2024/04/03 05:08:50;;;;;;;36.92;8.85;;;;;;;;;;5034859;28;20026;-65
2024/04/03 05:11:16;;;;;;;49.10;9.50;;;;;;;;;;5035101;28;20021;-63
2024/04/03 05:13:41;;;;;;;36.10;8.68;;;;;;;;;;5034862;28;20028;-64
2024/04/03 05:16:13;;;;;;;41.63;8.32;;;;;;;;;;5034081;28;20025;-64
2024/04/03 05:18:39;;;;;;;31.33;8.13;;;;;;;;;;5035003;28;20025;-63
2024/04/03 05:21:05;;;;;;;35.83;8.30;;;;;;;;;;5034898;28;20044;-67
2024/04/03 05:23:30;;;;;;;37.00;7.45;;;;;;;;;;5034545;28;20037;-61
2024/04/03 05:25:57;;;;;;;35.97;8.18;;;;;;;;;;5035283;28;20109;-64
2024/04/03 05:28:22;;;;;;;24.63;7.32;;;;;;;;;;5034744;28;20024;-64
2024/04/03 05:30:47;;;;;;;33.17;8.13;;;;;;;;;;5034331;28;20096;-64
2024/04/03 05:33:13;;;;;;;32.13;7.55;;;;;;;;;;5035011;28;20025;-70
2024/04/03 05:35:38;;;;;;;41.47;8.00;;;;;;;;;;5034193;28;20033;-66
2024/04/03 05:38:03;;;;;;;42.27;7.70;;;;;;;;;;5033707;28;20324;-68
2024/04/03 05:40:29;;;;;;;41.38;7.93;;;;;;;;;;5033748;28;20286;-66
2024/04/03 05:42:55;;;;;;;35.88;8.32;;;;;;;;;;5034836;28;20096;-68
2024/04/03 05:45:21;;;;;;;30.23;7.80;;;;;;;;;;5034753;28;20021;-68
2024/04/03 05:47:46;;;;;;;28.77;7.95;;;;;;;;;;5033984;28;20018;-64
2024/04/03 05:50:11;;;;;;;28.75;7.30;;;;;;;;;;5034556;28;20033;-65
2024/04/03 05:52:37;;;;;;;41.37;8.20;;;;;;;;;;5035109;28;20021;-65
2024/04/03 05:55:03;;;;;;;28.70;7.03;;;;;;;;;;5032506;28;20348;-64
2024/04/03 05:57:30;;;;;;;36.40;7.30;;;;;;;;;;5032652;28;20136;-66
2024/04/03 05:59:55;;;;;;;33.78;8.13;;;;;;;;;;5034259;28;20072;-66
2024/04/03 06:02:20;;;;;;;34.00;6.90;;;;;;;;;;5034364;28;20049;-66
2024/04/03 06:04:46;;;;;;;34.55;7.60;;;;;;;;;;5034289;28;20021;-66
2024/04/03 06:07:11;;;;;;;28.20;6.72;;;;;;;;;;5033765;28;20021;-66
2024/04/03 06:09:37;;;;;;;32.25;7.25;;;;;;;;;;5034446;28;20040;-65
2024/04/03 06:12:02;;;;;;;28.37;6.50;;;;;;;;;;5034473;28;20053;-65
2024/04/03 06:14:28;;;;;;;29.85;6.60;;;;;;;;;;5034203;28;20250;-64
2024/04/03 06:16:53;;;;;;;29.75;6.60;;;;;;;;;;5033320;28;20036;-66
2024/04/03 06:19:18;;;;;;;22.63;6.43;;;;;;;;;;5033019;28;20034;-65
2024/04/03 06:21:44;;;;;;;30.20;5.43;;;;;;;;;;5034208;28;20239;-74
2024/04/03 06:24:09;;;;;;;22.65;6.20;;;;;;;;;;5033438;28;20108;-65
2024/04/03 06:26:35;;;;;;;23.50;5.78;;;;;;;;;;5031772;28;20026;-65
2024/04/03 06:29:01;;;;;;;16.83;4.97;;;;;;;;;;5033328;28;20045;-65
2024/04/03 06:31:30;;;;;;;20.15;4.93;;;;;;;;;;5034080;28;20032;-65
2024/04/03 06:33:59;;;;;;;27.33;5.15;;;;;;;;;;5033769;28;20021;-65
2024/04/03 06:36:28;;;;;;;26.77;5.13;;;;;;;;;;5033382;28;20511;-65
2024/04/03 06:38:54;;;;;;;24.52;5.07;;;;;;;;;;5033211;28;20068;-66
2024/04/03 06:41:19;;;;;;;18.90;4.83;;;;;;;;;;5033740;28;20411;-66
2024/04/03 06:43:44;;;;;;;19.23;4.83;;;;;;;;;;5033357;28;20014;-67
2024/04/03 06:46:10;;;;;;;19.30;5.10;;;;;;;;;;5033238;28;20609;-69
2024/04/03 06:48:35;;;;;;;14.05;4.75;;;;;;;;;;5033305;28;20410;-66
2024/04/03 06:51:02;;;;;;;20.05;4.38;;;;;;;;;;5031899;28;20030;-66
2024/04/03 06:53:27;;;;;;;21.20;4.55;;;;;;;;;;5033241;28;20017;-66
2024/04/03 06:55:54;;;;;;;22.20;4.75;;;;;;;;;;5032780;28;20180;-67
2024/04/03 06:58:19;;;;;;;18.67;4.03;;;;;;;;;;5032889;28;20037;-65
2024/04/03 07:00:45;;;;;;;16.17;3.95;;;;;;;;;;5033174;28;20128;-66
2024/04/03 07:03:10;;;;;;;24.67;4.53;;;;;;;;;;5033228;28;20026;-66
2024/04/03 07:05:39;;;;;;;20.50;4.50;;;;;;;;;;5033119;28;20283;-66
2024/04/03 07:08:05;;;;;;;17.25;3.67;;;;;;;;;;5031119;28;20069;-66
2024/04/03 07:10:31;;;;;;;30.38;4.13;;;;;;;;;;5032540;28;20052;-66
2024/04/03 07:13:00;;;;;;;20.63;4.10;;;;;;;;;;5032975;28;20428;-65
2024/04/03 07:15:25;;;;;;;12.73;3.17;;;;;;;;;;5032812;28;20334;-65
2024/04/03 07:17:51;;;;;;;11.30;2.78;;;;;;;;;;5032413;28;20419;-66
2024/04/03 07:20:16;;;;;;;16.80;2.63;;;;;;;;;;5032590;28;20033;-66
2024/04/03 07:22:43;;;;;;;16.87;3.00;;;;;;;;;;5033032;28;20025;-66
2024/04/03 07:25:11;;;;;;;11.60;2.70;;;;;;;;;;5032820;28;20319;-67
2024/04/03 07:27:36;;;;;;;8.05;2.60;;;;;;;;;;5032405;28;20029;-66
2024/04/03 07:30:02;;;;;;;11.93;2.50;;;;;;;;;;5032206;28;20411;-66
2024/04/03 07:32:29;;;;;;;8.30;2.78;;;;;;;;;;5031979;28;20076;-65
2024/04/03 07:34:55;;;;;;;23.47;3.20;;;;;;;;;;5032271;28;20471;-66
2024/04/03 07:37:20;;;;;;;16.27;3.10;;;;;;;;;;5032592;28;20339;-67
2024/04/03 07:39:45;;;;;;;14.47;2.97;;;;;;;;;;5032562;28;20021;-66
2024/04/03 07:42:11;;;;;;;13.23;3.07;;;;;;;;;;5032014;28;20163;-66
2024/04/03 07:44:36;;;;;;;13.75;2.80;;;;;;;;;;5031732;28;20260;-67
2024/04/03 07:47:03;;;;;;;20.93;2.90;;;;;;;;;;5031627;28;20033;-66
2024/04/03 07:49:28;;;;;;;11.32;2.30;;;;;;;;;;5032172;28;20701;-66
2024/04/03 07:51:53;;;;;;;15.73;2.37;;;;;;;;;;5031988;28;20104;-66
2024/04/03 07:54:19;;;;;;;12.27;2.92;;;;;;;;;;5030997;28;20279;-66
2024/04/03 07:56:44;;;;;;;35.80;3.42;;;;;;;;;;5032804;28;20348;-65
2024/04/03 07:59:12;;;;;;;16.88;2.58;;;;;;;;;;5032339;28;20344;-65
2024/04/03 08:01:37;;;;;;;23.60;2.72;;;;;;;;;;5031622;28;20194;-65
2024/04/03 08:04:04;;;;;;;15.13;2.50;;;;;;;;;;5031633;28;20521;-65
2024/04/03 08:06:29;;;;;;;18.33;2.67;;;;;;;;;;5031125;28;20025;-67
2024/04/03 08:08:55;;;;;;;17.93;2.40;;;;;;;;;;5032266;28;20017;-68
2024/04/03 08:11:20;;;;;;;18.13;2.20;;;;;;;;;;5030538;28;20290;-65
2024/04/03 08:13:46;;;;;;;20.10;2.03;;;;;;;;;;5031897;28;20111;-66
2024/04/03 08:16:11;;;;;;;19.20;2.08;;;;;;;;;;5032748;28;20028;-66
2024/04/03 08:18:36;;;;;;;18.23;2.33;;;;;;;;;;5032951;28;20411;-67
2024/04/03 08:21:06;;;;;;;26.42;2.53;;;;;;;;;;5035609;28;20794;-66
2024/04/03 08:23:32;;;;;;;19.45;2.45;;;;;;;;;;5035601;28;20025;-66
2024/04/03 08:26:10;;;;;;;36.55;3.50;;;;;;;;;;5036189;28;20025;-66
2024/04/03 08:28:36;;;;;;;38.63;2.65;;;;;;;;;;5035284;28;20025;-67
2024/04/03 08:31:01;;;;;;;34.15;3.20;;;;;;;;;;5035690;28;20144;-66
2024/04/03 08:33:26;;;;;;;51.60;4.07;;;;;;;;;;5035411;28;20026;-65
2024/04/03 08:36:01;;;;;;;22.45;2.70;;;;;;;;;;5036080;28;20471;-66
2024/04/03 08:38:27;;;;;;;24.98;2.33;;;;;;;;;;5035380;28;20044;-67
2024/04/03 08:40:54;;;;;;;13.75;2.08;;;;;;;;;;5034205;28;20041;-65
2024/04/03 08:43:20;;;;;;;12.13;2.05;;;;;;;;;;5035299;28;20053;-66
2024/04/03 08:45:46;;;;;;;21.38;2.20;;;;;;;;;;5035677;28;20064;-65
2024/04/03 08:48:11;;;;;;;17.38;2.22;;;;;;;;;;5035253;28;20057;-65
2024/04/03 08:50:37;;;;;;;23.55;2.38;;;;;;;;;;5034976;28;20033;-67
2024/04/03 08:53:02;;;;;;;18.58;2.00;;;;;;;;;;5034330;28;20049;-66
2024/04/03 08:55:28;;;;;;;24.45;2.25;;;;;;;;;;5033015;28;20364;-66
2024/04/03 08:57:53;;;;;;;19.55;2.88;;;;;;;;;;5034287;28;20030;-65
2024/04/03 09:00:19;;;;;;;15.10;2.45;;;;;;;;;;5032433;28;20041;-67
2024/04/03 09:02:45;;;;;;;37.90;2.78;;;;;;;;;;5032648;28;20084;-68
2024/04/03 09:05:11;;;;;;;17.13;2.60;;;;;;;;;;5032686;28;20049;-69
2024/04/03 09:07:37;;;;;;;21.80;2.65;;;;;;;;;;5032358;28;20675;-68
2024/04/03 09:10:02;;;;;;;17.23;2.33;;;;;;;;;;5034767;28;20119;-68
2024/04/03 09:12:30;;;;;;;14.45;2.20;;;;;;;;;;5033778;28;20120;-72
2024/04/03 09:15:14;;;;;;;16.15;2.13;;;;;;;;;;5033522;28;20414;-67
2024/04/03 09:17:39;;;;;;;15.73;2.75;;;;;;;;;;5029185;28;20021;-70
2024/04/03 09:20:05;;;;;;;16.13;2.90;;;;;;;;;;5033578;28;20025;-71
2024/04/03 09:22:30;;;;;;;18.85;3.00;;;;;;;;;;5034584;28;20017;-72
2024/04/03 09:24:56;;;;;;;18.35;3.35;;;;;;;;;;5035324;28;20100;-72
2024/04/03 09:27:21;;;;;;;14.82;2.90;;;;;;;;;;5034110;28;20017;-73
2024/04/03 09:29:56;;;;;;;16.98;2.88;;;;;;;;;;5034066;28;20045;-69
2024/04/03 09:32:21;;;;;;;11.07;2.90;;;;;;;;;;5034061;28;20067;-70
2024/04/03 09:34:48;;;;;;;22.20;3.30;;;;;;;;;;5033022;28;20384;-74
2024/04/03 09:37:13;;;;;;;19.23;3.47;;;;;;;;;;5033905;28;20095;-74
2024/04/03 09:39:40;;;;;;;21.70;3.08;;;;;;;;;;5034040;28;20785;-75
2024/04/03 09:42:09;;;;;;;22.55;3.20;;;;;;;;;;5034349;28;20034;-74
2024/04/03 09:44:37;;;;;;;26.30;3.42;;;;;;;;;;5032060;28;20022;-68
2024/04/03 09:47:11;;;;;;;15.68;3.65;;;;;;;;;;5033139;28;20352;-70
2024/04/03 09:49:49;;;;;;;19.35;2.97;;;;;;;;;;5033437;28;20176;-69
2024/04/03 09:52:14;;;;;;;14.95;2.50;;;;;;;;;;5034571;28;20041;-73
2024/04/03 09:54:40;;;;;;;21.20;3.63;;;;;;;;;;5034055;28;20057;-72
2024/04/03 09:57:06;;;;;;;20.33;4.03;;;;;;;;;;5033388;28;20523;-72
2024/04/03 09:59:35;;;;;;;23.50;3.08;;;;;;;;;;5033087;28;20021;-74
2024/04/03 10:02:01;;;;;;;14.32;3.10;;;;;;;;;;5033928;28;20384;-73
2024/04/03 10:04:33;;;;;;;24.00;2.83;;;;;;;;;;5034226;28;20029;-73
2024/04/03 10:06:58;;;;;;;25.88;3.17;;;;;;;;;;5033688;28;20057;-73
2024/04/03 10:09:25;;;;;;;22.38;2.88;;;;;;;;;;5033274;28;20423;-72
2024/04/03 10:11:55;;;;;;;14.65;2.97;;;;;;;;;;5034718;28;20448;-75
2024/04/03 10:14:32;;;;;;;45.38;3.92;;;;;;;;;;5034369;28;20036;-74
2024/04/03 10:16:58;;;;;;;25.08;2.88;;;;;;;;;;5033417;28;20103;-74
2024/04/03 10:19:29;;;;;;;20.90;2.70;;;;;;;;;;5033557;28;20029;-71
2024/04/03 10:21:56;;;;;;;18.02;2.58;;;;;;;;;;5033791;28;20040;-73
2024/04/03 10:24:22;;;;;;;15.73;2.80;;;;;;;;;;5033699;28;20025;-72
2024/04/03 10:26:47;;;;;;;20.73;2.65;;;;;;;;;;5031430;28;20021;-71
2024/04/03 10:29:13;;;;;;;18.55;2.63;;;;;;;;;;5033364;28;20060;-73
2024/04/03 10:31:38;;;;;;;24.25;2.15;;;;;;;;;;5033664;28;20436;-75
2024/04/03 10:34:04;;;;;;;13.73;1.98;;;;;;;;;;5033296;28;20415;-70
2024/04/03 10:36:29;;;;;;;38.25;2.30;;;;;;;;;;5032619;28;20044;-74
2024/04/03 10:38:54;;;;;;;16.13;1.67;;;;;;;;;;5033253;28;20451;-72
2024/04/03 10:41:20;;;;;;;13.10;1.30;;;;;;;;;;5033315;28;20096;-73
2024/04/03 10:43:45;;;;;;;18.13;1.10;;;;;;;;;;5032891;28;20018;-73
2024/04/03 10:46:13;;;;;;;15.57;1.20;;;;;;;;;;5032680;28;20022;-73
2024/04/03 10:48:40;;;;;;;17.83;0.93;;;;;;;;;;5033222;28;20104;-74
2024/04/03 10:51:06;;;;;;;9.15;0.80;;;;;;;;;;5032779;28;20052;-70
2024/04/03 10:53:33;;;;;;;7.20;0.80;;;;;;;;;;5031455;28;20106;-73
2024/04/03 10:55:58;;;;;;;10.07;0.80;;;;;;;;;;5032769;28;20053;-74
2024/04/03 10:58:26;;;;;;;11.63;0.95;;;;;;;;;;5032914;28;20045;-64
2024/04/03 11:00:52;;;;;;;7.72;1.27;;;;;;;;;;5031920;28;20037;-71
2024/04/03 11:03:19;;;;;;;6.10;0.50;;;;;;;;;;5032634;28;20045;-70
2024/04/03 11:05:44;;;;;;;4.80;0.70;;;;;;;;;;5031757;28;20029;-72
2024/04/03 11:08:11;;;;;;;6.70;0.60;;;;;;;;;;5032514;28;20460;-71
2024/04/03 11:10:37;;;;;;;4.20;0.52;;;;;;;;;;5032562;28;20452;-68
2024/04/03 11:13:10;;;;;;;8.45;0.75;;;;;;;;;;5032224;28;20116;-70
2024/04/03 11:15:35;;;;;;;13.98;0.88;;;;;;;;;;5032755;28;20095;-70
2024/04/03 11:18:01;;;;;;;11.07;0.70;;;;;;;;;;5031165;28;20066;-71
2024/04/03 11:20:27;;;;;;;3.13;0.52;;;;;;;;;;5032980;28;20033;-70
2024/04/03 11:22:55;;;;;;;7.72;0.65;;;;;;;;;;5033235;28;20018;-70
2024/04/03 11:25:21;;;;;;;14.75;0.80;;;;;;;;;;5031794;28;20014;-71
2024/04/03 11:27:46;;;;;;;14.20;1.10;;;;;;;;;;5033027;28;20108;-71
2024/04/03 11:30:12;;;;;;;4.07;0.70;;;;;;;;;;5032292;28;20036;-68
2024/04/03 11:32:37;;;;;;;7.32;0.75;;;;;;;;;;5032337;28;20022;-72
2024/04/03 11:35:04;;;;;;;8.65;0.77;;;;;;;;;;5032181;28;20071;-74
2024/04/03 11:37:29;;;;;;;7.03;0.68;;;;;;;;;;5032669;28;20119;-73
2024/04/03 11:39:54;;;;;;;5.70;0.60;;;;;;;;;;5032968;28;20071;-76
2024/04/03 11:42:20;;;;;;;6.45;0.80;;;;;;;;;;5032255;28;20133;-74
2024/04/03 11:44:45;;;;;;;3.20;0.90;;;;;;;;;;5032179;28;20032;-76
2024/04/03 11:47:11;;;;;;;2.83;0.22;;;;;;;;;;5031952;28;20417;-74
2024/04/03 11:49:37;;;;;;;5.57;0.50;;;;;;;;;;5031992;28;20029;-70
2024/04/03 11:52:02;;;;;;;5.47;0.75;;;;;;;;;;5032188;28;20029;-75
2024/04/03 11:54:27;;;;;;;4.22;0.50;;;;;;;;;;5031789;28;20057;-71
2024/04/03 11:56:55;;;;;;;5.85;0.40;;;;;;;;;;5032971;28;20451;-76
2024/04/03 11:59:20;;;;;;;5.63;0.52;;;;;;;;;;5032574;28;20060;-74
2024/04/03 12:01:46;;;;;;;4.38;0.50;;;;;;;;;;5031842;28;20913;-72
2024/04/03 12:04:11;;;;;;;5.47;0.50;;;;;;;;;;5031926;28;20040;-73
2024/04/03 12:06:37;;;;;;;5.15;0.52;;;;;;;;;;5032714;28;20022;-74
2024/04/03 12:09:05;;;;;;;12.23;0.88;;;;;;;;;;5033015;28;20026;-71
2024/04/03 12:11:30;;;;;;;10.25;0.70;;;;;;;;;;5032373;28;20029;-73
2024/04/03 12:13:56;;;;;;;7.57;0.63;;;;;;;;;;5032090;28;20333;-74
2024/04/03 12:16:22;;;;;;;10.18;1.25;;;;;;;;;;5032461;28;20061;-74
2024/04/03 12:19:01;;;;;;;5.65;0.57;;;;;;;;;;5031823;28;20048;-75
2024/04/03 12:21:27;;;;;;;5.55;0.40;;;;;;;;;;5031562;28;20073;-72
2024/04/03 12:23:52;;;;;;;4.57;0.65;;;;;;;;;;5031922;28;20448;-70
2024/04/03 12:26:19;;;;;;;6.50;0.73;;;;;;;;;;5032311;28;20022;-72
2024/04/03 12:28:45;;;;;;;6.15;0.85;;;;;;;;;;5032975;28;20029;-73
2024/04/03 12:31:10;;;;;;;12.50;0.80;;;;;;;;;;5031843;28;20022;-75
2024/04/03 12:33:36;;;;;;;9.45;0.68;;;;;;;;;;5032184;28;20026;-75
2024/04/03 12:36:01;;;;;;;5.07;0.50;;;;;;;;;;5031363;28;20025;-72
2024/04/03 12:38:26;;;;;;;2.65;0.52;;;;;;;;;;5032092;28;20025;-72
2024/04/03 12:40:53;;;;;;;1.90;0.75;;;;;;;;;;5031775;28;20049;-72
2024/04/03 12:43:19;;;;;;;4.18;0.68;;;;;;;;;;5031443;28;20075;-71
2024/04/03 12:45:49;;;;;;;9.48;1.40;;;;;;;;;;5031074;28;20029;-72
2024/04/03 12:48:14;;;;;;;3.80;0.50;;;;;;;;;;5031489;28;20035;-71
2024/04/03 12:50:40;;;;;;;2.50;0.63;;;;;;;;;;5030704;28;20030;-70
2024/04/03 12:53:05;;;;;;;1.80;0.70;;;;;;;;;;5031621;28;20052;-67
2024/04/03 12:55:31;;;;;;;1.60;0.70;;;;;;;;;;5029869;28;20061;-68
2024/04/03 12:57:56;;;;;;;6.28;0.93;;;;;;;;;;5030750;28;20088;-69
2024/04/03 13:00:21;;;;;;;6.22;0.60;;;;;;;;;;5031835;28;20056;-68
2024/04/03 13:02:47;;;;;;;6.93;0.63;;;;;;;;;;5031344;28;20033;-70
2024/04/03 13:05:12;;;;;;;2.65;0.43;;;;;;;;;;5031127;28;20029;-67
2024/04/03 13:07:38;;;;;;;2.58;0.40;;;;;;;;;;5033742;28;20057;-65
2024/04/03 13:10:03;;;;;;;6.55;0.77;;;;;;;;;;5033466;28;20032;-65
2024/04/03 13:12:30;;;;;;;1.55;0.50;;;;;;;;;;5034582;28;20022;-68
2024/04/03 13:14:55;;;;;;;6.60;0.60;;;;;;;;;;5035105;28;20029;-66
2024/04/03 13:17:20;;;;;;;3.22;0.50;;;;;;;;;;5034959;28;20025;-66
2024/04/03 13:19:46;;;;;;;6.13;0.50;;;;;;;;;;5034112;28;20018;-66
2024/04/03 13:22:16;;;;;;;4.38;0.60;;;;;;;;;;5034682;28;20040;-67
2024/04/03 13:24:41;;;;;;;1.73;0.80;;;;;;;;;;5035102;28;20026;-67
2024/04/03 13:27:07;;;;;;;7.18;0.60;;;;;;;;;;5034352;28;20455;-68
2024/04/03 13:29:33;;;;;;;0.77;0.60;;;;;;;;;;5034230;28;20138;-64
2024/04/03 13:31:58;;;;;;;2.15;0.55;;;;;;;;;;5033992;28;20025;-63
2024/04/03 13:34:24;;;;;;;1.38;0.50;;;;;;;;;;5034963;28;20468;-63
2024/04/03 13:36:49;;;;;;;2.80;0.50;;;;;;;;;;5034278;28;20037;-63
2024/04/03 13:39:14;;;;;;;1.80;0.60;;;;;;;;;;5027153;28;20021;-63
2024/04/03 13:41:40;;;;;;;2.83;0.70;;;;;;;;;;5026825;28;20337;-64
2024/04/03 13:44:05;;;;;;;2.42;0.60;;;;;;;;;;5033472;28;20057;-64
2024/04/03 13:46:31;;;;;;;1.40;0.32;;;;;;;;;;5016386;28;20445;-63
2024/04/03 13:48:56;;;;;;;4.05;0.40;;;;;;;;;;5015576;28;20026;-63
2024/04/03 13:51:23;;;;;;;3.47;0.47;;;;;;;;;;5034134;28;20113;-63
2024/04/03 13:53:48;;;;;;;2.13;0.30;;;;;;;;;;5033928;28;20028;-64
2024/04/03 13:56:15;;;;;;;1.45;0.30;;;;;;;;;;5033335;28;20041;-64
2024/04/03 13:58:41;;;;;;;2.50;0.50;;;;;;;;;;5032762;28;20096;-67
2024/04/03 14:01:07;;;;;;;5.45;0.43;;;;;;;;;;5033806;28;20132;-67
2024/04/03 14:03:36;;;;;;;2.22;0.60;;;;;;;;;;5033532;28;20033;-62
2024/04/03 14:06:04;;;;;;;2.97;0.50;;;;;;;;;;5034304;28;20025;-63
2024/04/03 14:08:30;;;;;;;1.58;0.70;;;;;;;;;;5031871;28;20052;-62
2024/04/03 14:10:55;;;;;;;0.88;0.70;;;;;;;;;;5033534;28;20017;-63
2024/04/03 14:13:21;;;;;;;3.00;1.08;;;;;;;;;;5033725;28;20029;-63
2024/04/03 14:15:47;;;;;;;1.75;0.77;;;;;;;;;;5016138;28;20395;-63
2024/04/03 14:18:15;;;;;;;1.52;0.68;;;;;;;;;;5033349;28;20053;-66
2024/04/03 14:20:41;;;;;;;6.40;1.02;;;;;;;;;;5032945;28;20033;-65
2024/04/03 14:23:06;;;;;;;0.98;0.65;;;;;;;;;;5033461;28;20459;-67
2024/04/03 14:25:33;;;;;;;2.55;0.90;;;;;;;;;;5032106;28;20049;-64
2024/04/03 14:27:58;;;;;;;5.40;0.88;;;;;;;;;;5033820;28;20415;-67